Latest Coastal Weather Observations for Flinders Reef

IDQ60701

Issued at 2:02 am EST Thursday 25 August 2016 (issued every 10 minutes, with the page automatically refreshed every 10 minutes)

About coastal observations | Map of coastal stations | Coastal observations for QLD | Marine services | Other Formats
Station Details ID: 200783 Name: FLINDERS REEF Lat: -17.72 Lon: 148.45 Height: 2.6 m
Data from the previous 72 hours. | See also: Recent months at Flinders Reef
Date/Time
EST
Temp
°C
Wind Pressure Rain since
9am
mm
Weather Cloud Vis
km
Sea
Height
m
Swell
Dir  Spd
kts
Gust
kts
hPa Trend Height
m
Period
s
Dir
25/02:00am 25.3 N 10 11 1010.4 - - - - - - - - -
25/01:30am 25.3 N 11 13 1010.4 - - - - - - - - -
25/01:24am 25.3 N 11 - 1010.4 - - - - - - - - -
25/01:00am 25.4 N 11 13 1010.7 - - - - - - - - -
25/12:30am 25.4 N 10 12 1010.9 - - - - - - - - -
25/12:24am 25.4 N 10 - 1010.9 - - - - - - - - -
25/12:00am 25.3 N 11 13 1011.1 - - - - - - - - -
 
Date/Time
EST
Temp
°C
Wind Pressure Rain since
9am
mm
Weather Cloud Vis
km
Sea
Height
m
Swell
Dir  Spd
kts
Gust
kts
hPa Trend Height
m
Period
s
Dir
24/11:30pm 25.4 N 12 15 1011.2 - - - - - - - - -
24/11:24pm 25.4 N 11 - 1011.1 - - - - - - - - -
24/11:00pm 25.4 N 13 15 1011.3 - - - - - - - - -
24/10:30pm 25.5 N 12 15 1011.5 - - - - - - - - -
24/10:24pm 25.4 N 13 - 1011.5 - - - - - - - - -
24/10:00pm 25.5 N 11 13 1011.6 - - - - - - - - -
24/09:30pm 25.5 N 10 12 1011.7 - - - - - - - - -
24/09:24pm 25.5 N 11 - 1011.5 - - - - - - - - -
24/09:00pm 25.5 N 8 9 1011.5 - - - - - - - - -
24/08:30pm 25.6 N 9 10 1011.4 - - - - - - - - -
24/08:24pm 25.5 N 9 - 1011.3 - - - - - - - - -
24/08:00pm 25.5 N 9 11 1011.3 - - - - - - - - -
24/07:30pm 25.5 N 10 12 1010.9 - - - - - - - - -
24/07:24pm 25.4 N 10 - 1010.8 - - - - - - - - -
24/07:00pm 25.5 N 9 10 1010.6 - - - - - - - - -
24/06:30pm 25.6 N 10 11 1010.3 - - - - - - - - -
24/06:24pm 25.7 N 9 - 1010.2 - - - - - - - - -
24/06:00pm 25.6 N 10 14 1010.2 - - - - - - - - -
24/05:30pm 25.8 N 9 11 1009.9 - - - - - - - - -
24/05:24pm 25.8 N 10 - 1009.6 - - - - - - - - -
24/05:00pm 25.8 N 12 13 1009.7 - - - - - - - - -
24/04:30pm 25.9 N 10 13 1009.5 - - - - - - - - -
24/04:24pm 26.0 N 10 - 1009.4 - - - - - - - - -
24/04:00pm 26.1 N 10 13 1009.3 - - - - - - - - -
24/03:30pm 26.4 N 9 10 1009.3 - - - - - - - - -
24/03:24pm 26.3 N 10 - 1009.1 - - - - - - - - -
24/03:00pm 26.4 N 10 11 1009.3 - - - - - - - - -
24/02:30pm 26.3 N 10 11 1009.5 - - - - - - - - -
24/02:24pm 26.3 N 10 - 1009.5 - - - - - - - - -
24/02:00pm 26.5 N 9 10 1009.9 - - - - - - - - -
24/01:30pm 26.5 N 8 9 1010.3 - - - - - - - - -
24/01:24pm 26.4 N 8 - 1010.3 - - - - - - - - -
24/01:00pm 27.0 NNW 6 7 1010.7 - - - - - - - - -
24/12:30pm 26.9 NNW 6 7 1011.3 - - - - - - - - -
24/12:24pm 27.1 NNW 6 - 1011.2 - - - - - - - - -
24/12:00pm 27.4 N 5 6 1011.7 - - - - - - - - -
24/11:30am 27.2 N 4 5 1012.1 - - - - - - - - -
24/11:24am 27.0 N 4 - 1012.1 - - - - - - - - -
24/11:00am 26.9 NNW 4 5 1012.6 - - - - - - - - -
24/10:30am 26.8 NW 5 6 1013.0 - - - - - - - - -
24/10:24am 26.8 NW 5 - 1012.9 - - - - - - - - -
24/10:00am 26.4 NW 3 4 1013.1 - - - - - - - - -
24/09:30am 26.3 NW 3 4 1013.4 - - - - - - - - -
24/09:24am 25.9 NW 3 - 1013.3 - - - - - - - - -
24/09:00am 25.4 NW 3 4 1013.3 - - - - - - - - -
24/08:30am 25.5 NW 3 4 1013.0 - - - - - - - - -
24/08:24am 25.1 NW 3 - 1012.9 - - - - - - - - -
24/08:00am 24.9 NW 3 4 1012.9 - - - - - - - - -
24/07:30am 24.7 NW 4 4 1012.5 - - - - - - - - -
24/07:24am 24.7 NW 4 - 1012.3 - - - - - - - - -
24/07:00am 24.6 NW 4 5 1012.1 - - - - - - - - -
24/06:30am 24.5 CALM 0 2 1011.7 - - - - - - - - -
24/06:24am 24.5 CALM 0 - 1011.5 - - - - - - - - -
24/06:00am 24.5 CALM 0 3 1011.3 - - - - - - - - -
24/05:30am 24.4 CALM 0 0 1010.9 - - - - - - - - -
24/05:24am 24.4 CALM 0 - 1010.8 - - - - - - - - -
24/05:00am 24.3 CALM 0 0 1010.5 - - - - - - - - -
24/04:30am 24.4 CALM 0 0 1010.2 - - - - - - - - -
24/04:24am 24.3 CALM 0 - 1010.1 - - - - - - - - -
24/04:00am 24.3 CALM 0 1 1009.8 - - - - - - - - -
24/03:30am 24.3 CALM 0 2 1009.8 - - - - - - - - -
24/03:24am 24.3 CALM 0 - 1009.6 - - - - - - - - -
24/03:00am 24.3 CALM 0 1 1009.8 - - - - - - - - -
24/02:30am 24.3 CALM 0 3 1009.9 - - - - - - - - -
24/02:24am 24.3 CALM 0 - 1009.8 - - - - - - - - -
24/02:00am 24.4 CALM 0 3 1010.0 - - - - - - - - -
24/01:30am 24.4 CALM 0 2 1010.4 - - - - - - - - -
24/01:24am 24.4 CALM 0 - 1010.5 - - - - - - - - -
24/01:00am 24.5 CALM 0 0 1011.1 - - - - - - - - -
24/12:30am 24.6 NE 2 4 1011.6 - - - - - - - - -
24/12:24am 24.6 NE 3 - 1011.6 - - - - - - - - -
24/12:00am 24.6 CALM 0 0 1012.1 - - - - - - - - -
 
Date/Time
EST
Temp
°C
Wind Pressure Rain since
9am
mm
Weather Cloud Vis
km
Sea
Height
m
Swell
Dir  Spd
kts
Gust
kts
hPa Trend Height
m
Period
s
Dir
23/11:30pm 24.5 NE 4 5 1012.1 - - - - - - - - -
23/11:24pm 24.6 NNE 4 - 1012.0 - - - - - - - - -
23/11:00pm 24.6 NNE 4 6 1012.2 - - - - - - - - -
23/10:30pm 24.6 NNE 5 6 1012.3 - - - - - - - - -
23/10:24pm 24.7 NNE 4 - 1012.2 - - - - - - - - -
23/10:00pm 24.6 NNE 5 5 1012.4 - - - - - - - - -
23/09:30pm 24.7 NNE 5 6 1012.5 - - - - - - - - -
23/09:24pm 24.6 NNE 5 - 1012.4 - - - - - - - - -
23/09:00pm 24.6 NNE 5 6 1012.5 - - - - - - - - -
23/08:30pm 24.5 NNE 5 6 1012.3 - - - - - - - - -
23/08:24pm 24.5 NNE 5 - 1012.1 - - - - - - - - -
23/08:00pm 24.4 N 5 6 1012.1 - - - - - - - - -
23/07:30pm 24.4 N 5 6 1011.8 - - - - - - - - -
23/07:24pm 24.4 N 5 - 1011.6 - - - - - - - - -
23/07:00pm 24.2 NNE 5 7 1011.4 - - - - - - - - -
23/06:30pm 24.3 NNE 7 8 1011.0 - - - - - - - - -
23/06:24pm 24.4 NNE 8 - 1010.8 - - - - - - - - -
23/06:00pm 24.3 NE 8 9 1010.7 - - - - - - - - -
23/05:30pm 24.5 NNE 10 11 1010.7 - - - - - - - - -
23/05:24pm 24.7 NNE 9 - 1010.6 - - - - - - - - -
23/05:00pm 24.7 NNE 8 10 1010.3 - - - - - - - - -
23/04:30pm 24.8 NNE 9 10 1010.3 - - - - - - - - -
23/04:24pm 25.0 NNE 9 - 1010.1 - - - - - - - - -
23/04:00pm 25.0 NNE 9 11 1010.0 - - - - - - - - -
23/03:30pm 25.1 NNE 8 9 1009.9 - - - - - - - - -
23/03:24pm 25.0 NNE 7 - 1009.8 - - - - - - - - -
23/03:00pm 24.7 NNE 8 9 1010.0 - - - - - - - - -
23/02:30pm 24.7 NNE 7 8 1010.2 - - - - - - - - -
23/02:24pm 24.6 NE 7 - 1010.1 - - - - - - - - -
23/02:00pm 24.4 NNE 7 9 1010.4 - - - - - - - - -
23/01:30pm 24.6 NNE 8 9 1010.7 - - - - - - - - -
23/01:24pm 24.9 NNE 7 - 1010.7 - - - - - - - - -
23/01:00pm 24.8 NNE 7 9 1011.1 - - - - - - - - -
23/12:30pm 24.9 NE 6 7 1011.5 - - - - - - - - -
23/12:24pm 24.7 NE 5 - 1011.5 - - - - - - - - -
23/12:00pm 25.1 NE 6 8 1011.9 - - - - - - - - -
23/11:30am 24.6 NE 6 8 1012.5 - - - - - - - - -
23/11:24am 24.4 NE 7 - 1012.5 - - - - - - - - -
23/11:00am 24.6 NE 6 7 1012.9 - - - - - - - - -
23/10:30am 24.6 NE 6 7 1013.3 - - - - - - - - -
23/10:24am 24.7 NE 6 - 1013.2 - - - - - - - - -
23/10:00am 25.2 ENE 6 7 1013.6 - - - - - - - - -
23/09:30am 25.7 ENE 5 7 1013.6 - - - - - - - - -
23/09:24am 25.6 ENE 5 - 1013.4 - - - - - - - - -
23/09:00am 25.3 ENE 5 7 1013.6 - - - - - - - - -
23/08:30am 25.3 E 3 6 1013.6 - - - - - - - - -
23/08:24am 25.6 CALM 0 - 1013.4 - - - - - - - - -
23/08:00am 24.8 ESE 1 3 1013.4 - - - - - - - - -
23/07:30am 23.6 ESE 4 5 1013.3 - - - - - - - - -
23/07:24am 23.6 ESE 5 - 1013.1 - - - - - - - - -
23/07:00am 23.6 ENE 4 5 1013.1 - - - - - - - - -
23/06:30am 23.3 ENE 3 4 1012.9 - - - - - - - - -
23/06:24am 23.3 ENE 4 - 1012.8 - - - - - - - - -
23/06:00am 23.4 ENE 4 6 1012.7 - - - - - - - - -
23/05:30am 23.1 ENE 5 6 1012.3 - - - - - - - - -
23/05:24am 23.3 ENE 5 - 1012.2 - - - - - - - - -
23/05:00am 23.2 ENE 5 6 1011.9 - - - - - - - - -
23/04:30am 23.3 ENE 4 5 1011.9 - - - - - - - - -
23/04:24am 23.3 ENE 4 - 1011.8 - - - - - - - - -
23/04:00am 23.3 ENE 4 5 1011.8 - - - - - - - - -
23/03:30am 23.3 E 4 5 1011.9 - - - - - - - - -
23/03:24am 23.4 E 3 - 1011.7 - - - - - - - - -
23/03:00am 23.4 E 4 5 1011.9 - - - - - - - - -
23/02:30am 23.4 E 4 5 1012.0 - - - - - - - - -
23/02:24am 23.5 E 4 - 1012.0 - - - - - - - - -
23/02:00am 23.5 E 5 6 1012.3 - - - - - - - - -
23/01:30am 23.4 E 6 7 1012.5 - - - - - - - - -
23/01:24am 23.5 E 6 - 1012.4 - - - - - - - - -
23/01:00am 23.6 E 5 6 1012.5 - - - - - - - - -
23/12:30am 23.8 E 5 7 1012.9 - - - - - - - - -
23/12:24am 23.6 E 5 - 1012.8 - - - - - - - - -
23/12:00am 23.7 E 6 7 1013.1 - - - - - - - - -
 
Date/Time
EST
Temp
°C
Wind Pressure Rain since
9am
mm
Weather Cloud Vis
km
Sea
Height
m
Swell
Dir  Spd
kts
Gust
kts
hPa Trend Height
m
Period
s
Dir
22/11:30pm 23.7 E 5 6 1013.3 - - - - - - - - -
22/11:24pm 23.8 E 5 - 1013.3 - - - - - - - - -
22/11:00pm 23.8 E 6 8 1013.5 - - - - - - - - -
22/10:30pm 23.6 E 7 8 1013.6 - - - - - - - - -
22/10:24pm 23.6 E 7 - 1013.4 - - - - - - - - -
22/10:00pm 23.8 E 7 8 1013.5 - - - - - - - - -
22/09:30pm 23.7 E 7 9 1013.2 - - - - - - - - -
22/09:24pm 24.0 E 7 - 1013.0 - - - - - - - - -
22/09:00pm 23.7 E 8 9 1012.9 - - - - - - - - -
22/08:30pm 23.9 E 8 10 1012.9 - - - - - - - - -
22/08:24pm 23.7 E 8 - 1012.8 - - - - - - - - -
22/08:00pm 23.8 E 8 9 1012.8 - - - - - - - - -
22/07:30pm 24.0 E 8 10 1012.4 - - - - - - - - -
22/07:24pm 23.9 E 8 - 1012.3 - - - - - - - - -
22/07:00pm 23.9 E 7 8 1012.2 - - - - - - - - -
22/06:30pm 23.1 SE 8 12 1012.1 - - - - - - - - -
22/06:24pm 23.2 SE 11 - 1011.9 - - - - - - - - -
22/06:00pm 23.4 E 9 10 1011.9 - - - - - - - - -
22/05:30pm 24.0 E 7 8 1011.6 - - - - - - - - -
22/05:24pm 23.9 E 8 - 1011.5 - - - - - - - - -
22/05:00pm 23.4 E 9 10 1011.4 - - - - - - - - -
22/04:30pm 23.6 E 10 11 1011.2 - - - - - - - - -
22/04:24pm 23.6 E 10 - 1011.1 - - - - - - - - -
22/04:00pm 24.1 SE 8 11 1011.1 - - - - - - - - -
22/03:30pm 23.7 SSE 9 10 1011.2 - - - - - - - - -
22/03:24pm 23.8 SSE 9 - 1011.0 - - - - - - - - -
22/03:00pm 24.3 SE 8 10 1011.2 - - - - - - - - -
22/02:30pm 24.2 SE 8 9 1011.4 - - - - - - - - -
22/02:24pm 24.0 SE 8 - 1011.4 - - - - - - - - -
22/02:00pm 24.0 SE 8 9 1011.7 - - - - - - - - -
22/01:30pm 24.0 ESE 10 12 1012.0 - - - - - - - - -
22/01:24pm 23.8 ESE 10 - 1011.9 - - - - - - - - -
22/01:00pm 24.2 E 10 12 1012.2 - - - - - - - - -
22/12:30pm 24.1 E 9 11 1012.3 - - - - - - - - -
22/12:24pm 24.1 E 10 - 1012.3 - - - - - - - - -
22/12:00pm 24.0 E 10 11 1012.8 - - - - - - - - -
22/11:30am 23.7 E 11 13 1013.3 - - - - - - - - -
22/11:24am 23.8 E 10 - 1013.3 - - - - - - - - -
22/11:00am 23.5 E 13 15 1013.5 - - - - - - - - -
22/10:30am 24.0 E 12 14 1013.8 - - - - - - - - -
22/10:24am 24.1 E 11 - 1013.7 - - - - - - - - -
22/10:00am 23.4 E 12 14 1013.8 - - - - - - - - -
22/09:30am 24.0 E 13 15 1013.8 - - - - - - - - -
22/09:24am 24.0 ESE 12 - 1013.7 - - - - - - - - -
22/09:00am 24.4 E 12 14 1013.8 - - - - - - - - -
22/08:30am 24.0 E 13 15 1013.6 - - - - - - - - -
22/08:24am 23.9 E 13 - 1013.4 - - - - - - - - -
22/08:00am 24.2 E 11 13 1013.3 - - - - - - - - -
22/07:30am 23.9 E 10 12 1013.1 - - - - - - - - -
22/07:24am 23.8 E 11 - 1013.0 - - - - - - - - -
22/07:00am 23.5 E 11 13 1012.8 - - - - - - - - -
22/06:30am 23.2 ENE 10 12 1012.6 - - - - - - - - -
22/06:24am 23.3 ENE 9 - 1012.5 - - - - - - - - -
22/06:00am 23.2 NE 11 12 1012.5 - - - - - - - - -
22/05:30am 23.0 E 13 15 1012.2 - - - - - - - - -
22/05:24am 23.4 E 11 - 1012.0 - - - - - - - - -
22/05:00am 22.1 E 11 13 1012.0 - - - - - - - - -
22/04:30am 23.0 E 17 20 1011.8 - - - - - - - - -
22/04:24am 23.5 E 15 - 1011.6 - - - - - - - - -
22/04:00am 23.5 E 14 17 1011.7 - - - - - - - - -
22/03:30am 23.1 E 15 17 1011.8 - - - - - - - - -
22/03:24am 23.2 E 13 - 1011.7 - - - - - - - - -
22/03:00am 23.0 E 18 21 1012.1 - - - - - - - - -
22/02:30am 23.4 E 15 17 1012.3 - - - - - - - - -
22/02:24am 23.6 E 16 - 1012.3 - - - - - - - - -

Other Formats:

Comma delimited format used in spreadsheet applications
http://www.bom.gov.au/fwo/IDQ60701/IDQ60701.94290.axf

JavaScript Object Notation format (JSON) in row-major order
http://www.bom.gov.au/fwo/IDQ60701/IDQ60701.94290.json